createdAt,value
2023-05-20T00:04:57.776Z,100.00
2023-05-20T00:10:02.006Z,100.00
2023-05-20T00:15:09.041Z,100.00
2023-05-20T00:20:13.630Z,100.00
2023-05-20T00:25:17.654Z,100.00
2023-05-20T00:30:23.860Z,100.00
2023-05-20T00:35:28.272Z,100.00
2023-05-20T00:40:32.442Z,100.00
2023-05-20T00:45:38.791Z,100.00
2023-05-20T00:50:42.784Z,100.00
2023-05-20T00:55:47.065Z,100.00
2023-05-20T01:00:52.848Z,100.00
2023-05-20T01:05:57.111Z,100.00
2023-05-20T01:11:07.858Z,100.00
2023-05-20T01:16:14.447Z,100.00
2023-05-20T01:21:19.617Z,100.00
2023-05-20T01:26:27.446Z,100.00
2023-05-20T01:31:36.539Z,100.00
2023-05-20T01:36:41.835Z,100.00
2023-05-20T01:41:47.543Z,100.00
2023-05-20T01:46:52.105Z,100.00
2023-05-20T01:51:56.391Z,100.00
2023-05-20T01:57:03.217Z,100.00
2023-05-20T02:02:07.284Z,100.00
2023-05-20T02:07:12.659Z,100.00
2023-05-20T02:12:17.989Z,100.00
2023-05-20T02:17:22.160Z,100.00
2023-05-20T02:22:26.137Z,100.00
2023-05-20T02:27:31.641Z,100.00
2023-05-20T02:32:37.299Z,100.00
2023-05-20T02:37:41.817Z,100.00
2023-05-20T02:42:48.483Z,100.00
2023-05-20T02:47:53.144Z,100.00
2023-05-20T02:52:57.780Z,100.00
2023-05-20T02:58:04.137Z,100.00
2023-05-20T03:03:11.210Z,100.00
2023-05-20T03:08:15.373Z,100.00
2023-05-20T03:13:21.142Z,100.00
2023-05-20T03:18:25.434Z,100.00
2023-05-20T03:23:29.557Z,100.00
2023-05-20T03:28:35.148Z,100.00
2023-05-20T03:33:40.194Z,100.00
2023-05-20T03:38:44.903Z,100.00
2023-05-20T03:43:50.594Z,100.00
2023-05-20T03:48:54.854Z,100.00
2023-05-20T03:53:59.202Z,100.00
2023-05-20T03:59:04.824Z,100.00
2023-05-20T04:04:09.507Z,100.00
2023-05-20T04:09:13.927Z,100.00
2023-05-20T04:14:20.449Z,100.00
2023-05-20T04:19:28.700Z,100.00
2023-05-20T04:24:33.139Z,100.00
2023-05-20T04:29:38.928Z,100.00
2023-05-20T04:34:45.203Z,100.00
2023-05-20T04:39:51.138Z,100.00
2023-05-20T04:44:56.867Z,100.00
2023-05-20T04:50:00.811Z,100.00
2023-05-20T04:55:05.736Z,100.00
2023-05-20T05:00:13.375Z,100.00
2023-05-20T05:05:17.902Z,100.00
2023-05-20T05:10:23.383Z,100.00
2023-05-20T05:15:29.386Z,100.00
2023-05-20T05:20:33.775Z,100.00
2023-05-20T05:25:37.754Z,100.00
2023-05-20T05:30:43.500Z,100.00
2023-05-20T05:35:48.103Z,100.00
2023-05-20T05:40:52.376Z,100.00
2023-05-20T05:45:58.343Z,100.00
2023-05-20T05:51:02.773Z,100.00
2023-05-20T05:56:08.228Z,100.00
2023-05-20T06:01:14.076Z,100.00
2023-05-20T06:06:18.446Z,100.00
2023-05-20T06:11:24.175Z,100.00
2023-05-20T06:16:30.286Z,100.00
2023-05-20T06:21:37.090Z,100.00
2023-05-20T06:26:41.232Z,100.00
2023-05-20T06:31:47.130Z,100.00
2023-05-20T06:36:51.681Z,100.00
2023-05-20T06:41:56.188Z,100.00
2023-05-20T06:47:09.138Z,100.00
2023-05-20T06:52:14.151Z,100.00
2023-05-20T06:57:18.790Z,100.00
2023-05-20T07:02:24.248Z,100.00
2023-05-20T07:07:28.651Z,100.00
2023-05-20T07:12:36.160Z,100.00
2023-05-20T07:17:42.989Z,100.00
2023-05-20T07:22:48.756Z,100.00
2023-05-20T07:27:59.963Z,100.00
2023-05-20T07:33:05.819Z,100.00
2023-05-20T07:38:11.071Z,100.00
2023-05-20T07:43:16.234Z,100.00
2023-05-20T07:48:22.230Z,100.00
2023-05-20T07:53:26.188Z,100.00
2023-05-20T07:58:32.605Z,100.00
2023-05-20T08:03:38.246Z,100.00
2023-05-20T08:08:47.758Z,100.00
2023-05-20T08:13:57.522Z,100.00
2023-05-20T08:19:06.197Z,100.00
2023-05-20T08:24:10.423Z,100.00
2023-05-20T08:29:14.588Z,100.00
2023-05-20T08:34:20.179Z,100.00
2023-05-20T08:39:24.236Z,100.00
2023-05-20T08:44:29.051Z,100.00
2023-05-20T08:49:34.996Z,100.00
2023-05-20T08:54:44.653Z,100.00
2023-05-20T08:59:48.770Z,100.00
2023-05-20T09:04:54.290Z,100.00
2023-05-20T09:09:58.976Z,100.00
2023-05-20T09:15:03.123Z,100.00
2023-05-20T09:20:12.702Z,100.00
2023-05-20T09:25:21.614Z,100.00
2023-05-20T09:30:27.314Z,100.00
2023-05-20T09:35:38.204Z,100.00
2023-05-20T09:40:43.764Z,100.00
2023-05-20T09:45:48.511Z,100.00
2023-05-20T09:50:54.911Z,100.00
2023-05-20T09:55:59.480Z,100.00
2023-05-20T10:01:03.889Z,100.00
2023-05-20T10:06:28.412Z,100.00
2023-05-20T10:11:38.550Z,100.00
2023-05-20T10:16:46.595Z,100.00
2023-05-20T10:22:00.168Z,100.00
2023-05-20T10:27:06.576Z,100.00
2023-05-20T10:32:10.888Z,100.00
2023-05-20T10:37:27.880Z,100.00
2023-05-20T10:42:32.663Z,100.00
2023-05-20T10:47:37.188Z,100.00
2023-05-20T10:52:43.148Z,100.00
2023-05-20T10:57:47.199Z,100.00
2023-05-20T11:02:52.013Z,97.35
2023-05-20T11:08:08.091Z,93.36
2023-05-20T11:13:15.658Z,90.57
2023-05-20T11:18:19.733Z,91.96
2023-05-20T11:23:25.020Z,97.93
2023-05-20T11:28:29.085Z,100.00
2023-05-20T11:33:33.178Z,93.17
2023-05-20T11:38:38.527Z,88.53
2023-05-20T11:43:43.116Z,93.32
2023-05-20T11:48:53.022Z,91.16
2023-05-20T11:54:02.772Z,92.84
2023-05-20T11:59:07.613Z,93.01
2023-05-20T12:04:12.094Z,89.97
2023-05-20T12:09:17.719Z,88.29
2023-05-20T12:14:21.869Z,87.87
2023-05-20T12:19:26.113Z,88.09
2023-05-20T12:24:31.893Z,84.55
2023-05-20T12:29:35.742Z,82.87
2023-05-20T12:34:39.810Z,85.03
2023-05-20T12:39:45.098Z,81.36
2023-05-20T12:44:49.620Z,79.14
2023-05-20T12:49:53.517Z,78.54
2023-05-20T12:54:58.811Z,79.12
2023-05-20T13:00:02.919Z,76.27
2023-05-20T13:05:10.486Z,72.62
2023-05-20T13:10:17.232Z,69.03
2023-05-20T13:15:21.369Z,70.84
2023-05-20T13:20:25.292Z,67.68
2023-05-20T13:25:31.895Z,71.37
2023-05-20T13:30:36.561Z,65.22
2023-05-20T13:35:40.671Z,64.66
2023-05-20T13:40:46.492Z,64.72
2023-05-20T13:45:50.804Z,62.89
2023-05-20T13:50:54.712Z,63.00
2023-05-20T13:56:00.088Z,62.95
2023-05-20T14:01:04.681Z,64.23
2023-05-20T14:06:08.619Z,63.35
2023-05-20T14:11:14.385Z,63.01
2023-05-20T14:16:19.275Z,59.19
2023-05-20T14:21:23.472Z,58.87
2023-05-20T14:26:28.719Z,58.71
2023-05-20T14:31:32.729Z,59.79
2023-05-20T14:36:36.832Z,60.69
2023-05-20T14:41:42.291Z,59.33
2023-05-20T14:46:46.883Z,57.64
2023-05-20T14:51:51.127Z,57.99
2023-05-20T14:56:56.392Z,54.70
2023-05-20T15:02:00.752Z,53.34
2023-05-20T15:07:04.918Z,50.98
2023-05-20T15:12:11.019Z,49.55
2023-05-20T15:17:15.452Z,50.16
2023-05-20T15:22:19.515Z,50.81
2023-05-20T15:27:24.957Z,50.95
2023-05-20T15:32:29.327Z,49.84
2023-05-20T15:37:33.323Z,51.61
2023-05-20T15:42:38.776Z,51.81
2023-05-20T15:47:43.368Z,56.05
2023-05-20T15:52:47.563Z,61.55
2023-05-20T15:57:53.318Z,64.13
2023-05-20T16:02:57.632Z,63.66
2023-05-20T16:08:23.876Z,67.09
2023-05-20T16:13:29.387Z,72.36
2023-05-20T16:18:33.265Z,74.03
2023-05-20T16:23:37.395Z,73.01
2023-05-20T16:28:43.923Z,72.87
2023-05-20T16:33:48.313Z,75.47
2023-05-20T16:38:52.426Z,76.79
2023-05-20T16:43:57.726Z,80.08
2023-05-20T16:49:01.949Z,80.50
2023-05-20T16:54:05.893Z,81.84
2023-05-20T16:59:14.663Z,84.52
2023-05-20T17:04:19.131Z,88.73
2023-05-20T17:09:23.187Z,89.56
2023-05-20T17:14:28.432Z,91.93
2023-05-20T17:19:32.474Z,94.06
2023-05-20T17:24:37.542Z,96.77
2023-05-20T17:29:42.836Z,99.31
2023-05-20T17:34:46.940Z,100.00
2023-05-20T17:39:50.887Z,100.00
2023-05-20T17:44:56.500Z,100.00
2023-05-20T17:50:02.468Z,100.00
2023-05-20T17:55:08.144Z,100.00
2023-05-20T18:00:15.586Z,100.00
2023-05-20T18:05:28.399Z,100.00
2023-05-20T18:10:32.833Z,100.00
2023-05-20T18:15:39.391Z,100.00
2023-05-20T18:20:45.051Z,100.00
2023-05-20T18:25:48.966Z,100.00
2023-05-20T18:30:52.999Z,100.00
2023-05-20T18:35:58.354Z,100.00
2023-05-20T18:41:02.220Z,100.00
2023-05-20T18:46:06.587Z,100.00
2023-05-20T18:51:11.836Z,100.00
2023-05-20T18:56:16.178Z,100.00
2023-05-20T19:01:21.062Z,100.00
2023-05-20T19:06:26.681Z,100.00
2023-05-20T19:11:31.733Z,100.00
2023-05-20T19:16:36.518Z,100.00
2023-05-20T19:21:43.767Z,100.00
2023-05-20T19:26:47.686Z,100.00
2023-05-20T19:31:51.578Z,100.00
2023-05-20T19:36:57.625Z,100.00
2023-05-20T19:42:02.024Z,100.00
2023-05-20T19:47:08.153Z,100.00
2023-05-20T19:52:13.442Z,100.00
2023-05-20T19:57:17.399Z,100.00
2023-05-20T20:02:21.346Z,100.00
2023-05-20T20:07:27.373Z,100.00
2023-05-20T20:12:31.536Z,100.00
2023-05-20T20:17:37.357Z,100.00
2023-05-20T20:22:43.921Z,100.00
2023-05-20T20:27:48.656Z,100.00
2023-05-20T20:32:53.491Z,100.00
2023-05-20T20:38:00.042Z,100.00
2023-05-20T20:43:04.952Z,100.00
2023-05-20T20:48:09.054Z,100.00
2023-05-20T20:53:15.893Z,100.00
2023-05-20T20:58:20.049Z,100.00
2023-05-20T21:03:26.438Z,100.00
2023-05-20T21:08:31.973Z,100.00
2023-05-20T21:13:37.143Z,100.00
2023-05-20T21:18:43.194Z,100.00
2023-05-20T21:23:49.258Z,100.00
2023-05-20T21:28:53.325Z,100.00
2023-05-20T21:33:57.185Z,100.00
2023-05-20T21:39:02.430Z,100.00
2023-05-20T21:44:06.605Z,100.00
2023-05-20T21:49:10.740Z,100.00
2023-05-20T21:54:16.251Z,100.00
2023-05-20T21:59:20.155Z,100.00
2023-05-20T22:04:25.005Z,100.00
2023-05-20T22:09:30.481Z,100.00
2023-05-20T22:14:34.717Z,100.00
2023-05-20T22:19:40.204Z,100.00
2023-05-20T22:24:45.840Z,100.00
2023-05-20T22:29:50.818Z,100.00
2023-05-20T22:34:58.635Z,100.00
2023-05-20T22:40:05.009Z,100.00
2023-05-20T22:45:10.693Z,100.00
2023-05-20T22:50:14.650Z,100.00
2023-05-20T22:55:19.932Z,100.00
2023-05-20T23:00:23.925Z,100.00
2023-05-20T23:05:30.033Z,100.00
2023-05-20T23:10:35.630Z,100.00
2023-05-20T23:15:41.081Z,100.00
2023-05-20T23:20:45.812Z,100.00
2023-05-20T23:25:51.291Z,100.00
2023-05-20T23:30:57.014Z,100.00
2023-05-20T23:36:01.150Z,100.00
2023-05-20T23:41:06.838Z,100.00
2023-05-20T23:46:11.057Z,100.00
2023-05-20T23:51:16.397Z,100.00
2023-05-20T23:56:22.405Z,100.00
